createdAt,value
2017-09-27T00:01:39.412Z,16.43
2017-09-27T00:04:07.232Z,16.41
2017-09-27T00:06:34.946Z,16.36
2017-09-27T00:09:02.951Z,16.36
2017-09-27T00:11:30.881Z,16.27
2017-09-27T00:13:58.497Z,16.17
2017-09-27T00:16:26.418Z,16.21
2017-09-27T00:18:54.151Z,16.18
2017-09-27T00:21:21.869Z,16.17
2017-09-27T00:23:49.737Z,16.16
2017-09-27T00:26:17.627Z,16.09
2017-09-27T00:28:45.177Z,16.03
2017-09-27T00:31:13.358Z,15.99
2017-09-27T00:33:41.044Z,15.95
2017-09-27T00:36:08.612Z,15.89
2017-09-27T00:38:36.218Z,15.78
2017-09-27T00:41:04.468Z,15.82
2017-09-27T00:43:32.385Z,15.73
2017-09-27T00:46:00.307Z,15.65
2017-09-27T00:48:28.018Z,15.58
2017-09-27T00:50:55.937Z,15.54
2017-09-27T00:53:23.974Z,15.59
2017-09-27T00:55:52.699Z,15.47
2017-09-27T00:58:21.630Z,15.39
2017-09-27T01:00:49.208Z,15.43
2017-09-27T01:03:16.724Z,15.31
2017-09-27T01:05:44.451Z,15.34
2017-09-27T01:08:12.853Z,15.30
2017-09-27T01:10:41.652Z,15.28
2017-09-27T01:13:09.951Z,15.19
2017-09-27T01:15:37.584Z,15.12
2017-09-27T01:18:05.485Z,15.13
2017-09-27T01:20:34.804Z,15.20
2017-09-27T01:23:02.924Z,15.19
2017-09-27T01:25:30.638Z,15.16
2017-09-27T01:27:59.617Z,15.12
2017-09-27T01:30:28.362Z,15.13
2017-09-27T01:32:56.730Z,15.15
2017-09-27T01:35:25.106Z,15.07
2017-09-27T01:37:53.749Z,15.04
2017-09-27T01:40:21.443Z,14.92
2017-09-27T01:42:49.660Z,14.90
2017-09-27T01:45:18.315Z,14.82
2017-09-27T01:47:46.778Z,14.90
2017-09-27T01:50:14.450Z,14.92
2017-09-27T01:52:41.993Z,14.91
2017-09-27T01:55:10.397Z,14.84
2017-09-27T01:57:37.975Z,14.76
2017-09-27T02:00:05.799Z,14.73
2017-09-27T02:02:33.494Z,14.73
2017-09-27T02:05:01.140Z,14.68
2017-09-27T02:07:28.958Z,14.69
2017-09-27T02:09:56.628Z,14.66
2017-09-27T02:12:24.503Z,14.71
2017-09-27T02:14:52.159Z,14.71
2017-09-27T02:17:19.778Z,14.73
2017-09-27T02:19:47.313Z,14.72
2017-09-27T02:22:15.980Z,14.66
2017-09-27T02:24:44.129Z,14.61
2017-09-27T02:27:12.287Z,14.62
2017-09-27T02:29:39.919Z,14.60
2017-09-27T02:32:12.020Z,14.57
2017-09-27T02:34:39.637Z,14.38
2017-09-27T02:37:07.298Z,14.42
2017-09-27T02:39:34.918Z,14.23
2017-09-27T02:42:02.473Z,14.21
2017-09-27T02:44:30.033Z,14.28
2017-09-27T02:46:57.537Z,14.23
2017-09-27T02:49:25.233Z,14.25
2017-09-27T02:51:53.647Z,14.21
2017-09-27T02:54:21.166Z,14.21
2017-09-27T02:56:49.036Z,14.17
2017-09-27T02:59:16.690Z,14.21
2017-09-27T03:01:46.594Z,14.18
2017-09-27T03:04:14.364Z,14.04
2017-09-27T03:06:42.097Z,14.13
2017-09-27T03:09:10.377Z,14.15
2017-09-27T03:11:37.963Z,14.10
2017-09-27T03:14:05.672Z,14.09
2017-09-27T03:16:33.311Z,14.03
2017-09-27T03:19:00.926Z,14.10
2017-09-27T03:21:29.644Z,14.04
2017-09-27T03:23:59.220Z,14.02
2017-09-27T03:26:27.664Z,14.03
2017-09-27T03:28:55.216Z,14.03
2017-09-27T03:31:22.810Z,14.04
2017-09-27T03:33:51.254Z,14.10
2017-09-27T03:36:20.696Z,14.11
2017-09-27T03:38:49.072Z,13.96
2017-09-27T03:41:16.668Z,13.69
2017-09-27T03:43:44.617Z,13.45
2017-09-27T03:46:12.667Z,13.47
2017-09-27T03:48:40.311Z,13.44
2017-09-27T03:51:07.996Z,13.44
2017-09-27T03:53:36.953Z,13.52
2017-09-27T03:56:04.666Z,13.61
2017-09-27T03:58:33.062Z,13.71
2017-09-27T04:01:01.666Z,13.81
2017-09-27T04:03:29.240Z,13.82
2017-09-27T04:05:56.804Z,13.79
2017-09-27T04:08:24.395Z,13.75
2017-09-27T04:10:51.969Z,13.77
2017-09-27T04:13:20.770Z,13.54
2017-09-27T04:15:49.772Z,13.71
2017-09-27T04:18:17.363Z,13.65
2017-09-27T04:20:44.936Z,13.68
2017-09-27T04:23:12.667Z,13.67
2017-09-27T04:25:40.393Z,13.64
2017-09-27T04:28:08.701Z,13.60
2017-09-27T04:30:36.433Z,13.59
2017-09-27T04:33:04.211Z,13.57
2017-09-27T04:35:31.864Z,13.54
2017-09-27T04:37:59.996Z,13.53
2017-09-27T04:40:28.820Z,13.60
2017-09-27T04:42:56.449Z,13.66
2017-09-27T04:45:24.814Z,13.64
2017-09-27T04:47:52.693Z,13.60
2017-09-27T04:50:20.522Z,13.55
2017-09-27T04:52:48.139Z,13.56
2017-09-27T04:55:16.113Z,13.61
2017-09-27T04:57:43.755Z,13.67
2017-09-27T05:00:11.475Z,13.63
2017-09-27T05:02:39.108Z,13.57
2017-09-27T05:05:06.876Z,13.51
2017-09-27T05:07:34.354Z,13.53
2017-09-27T05:10:01.904Z,13.59
2017-09-27T05:15:03.522Z,13.71
2017-09-27T05:17:30.995Z,13.76
2017-09-27T05:19:59.608Z,13.77
2017-09-27T05:22:27.114Z,13.82
2017-09-27T05:24:54.721Z,13.78
2017-09-27T05:27:22.278Z,13.58
2017-09-27T05:29:49.937Z,13.66
2017-09-27T05:32:17.537Z,13.67
2017-09-27T05:34:45.094Z,13.54
2017-09-27T05:37:12.611Z,13.60
2017-09-27T05:39:40.173Z,13.52
2017-09-27T05:42:07.722Z,13.46
2017-09-27T05:44:35.240Z,13.52
2017-09-27T05:47:02.957Z,13.59
2017-09-27T05:49:30.541Z,13.63
2017-09-27T05:51:59.030Z,13.63
2017-09-27T05:54:26.595Z,13.68
2017-09-27T05:56:54.125Z,13.72
2017-09-27T05:59:21.682Z,13.73
2017-09-27T06:01:49.523Z,13.82
2017-09-27T06:04:17.045Z,13.89
2017-09-27T06:06:44.593Z,13.93
2017-09-27T06:09:12.080Z,13.90
2017-09-27T06:11:40.469Z,13.98
2017-09-27T06:14:08.163Z,14.09
2017-09-27T06:16:35.721Z,14.10
2017-09-27T06:19:03.386Z,14.22
2017-09-27T06:21:31.641Z,14.32
2017-09-27T06:23:59.199Z,14.39
2017-09-27T06:26:26.709Z,14.41
2017-09-27T06:28:54.248Z,14.43
2017-09-27T06:31:21.880Z,14.51
2017-09-27T06:33:49.423Z,14.58
2017-09-27T06:36:17.058Z,14.82
2017-09-27T06:38:44.622Z,15.12
2017-09-27T06:41:12.533Z,17.21
2017-09-27T06:43:40.049Z,18.64
2017-09-27T06:46:07.692Z,19.91
2017-09-27T06:48:35.401Z,20.69
2017-09-27T06:51:02.909Z,21.43
2017-09-27T06:53:30.438Z,22.17
2017-09-27T06:55:58.136Z,23.10
2017-09-27T06:58:25.679Z,23.45
2017-09-27T07:00:53.556Z,23.88
2017-09-27T07:03:21.789Z,24.67
2017-09-27T07:05:49.435Z,24.09
2017-09-27T07:08:16.985Z,24.98
2017-09-27T07:10:44.571Z,25.66
2017-09-27T07:13:12.336Z,26.46
2017-09-27T07:15:39.895Z,26.88
2017-09-27T07:18:07.492Z,27.11
2017-09-27T07:20:35.006Z,27.50
2017-09-27T07:23:02.681Z,27.85
2017-09-27T07:25:30.250Z,27.76
2017-09-27T07:27:57.780Z,27.98
2017-09-27T07:30:25.335Z,28.16
2017-09-27T07:32:52.912Z,28.72
2017-09-27T07:35:20.495Z,26.78
2017-09-27T07:37:48.061Z,25.53
2017-09-27T07:40:16.487Z,26.06
2017-09-27T07:42:43.980Z,28.10
2017-09-27T07:45:12.451Z,29.28
2017-09-27T07:47:40.137Z,29.79
2017-09-27T07:50:07.706Z,27.77
2017-09-27T07:52:35.250Z,28.83
2017-09-27T07:55:02.728Z,29.83
2017-09-27T07:57:30.297Z,30.59
2017-09-27T07:59:57.802Z,30.29
2017-09-27T08:02:25.304Z,30.40
2017-09-27T08:04:52.797Z,30.81
2017-09-27T08:07:20.299Z,30.66
2017-09-27T08:09:48.011Z,30.88
2017-09-27T08:12:15.536Z,28.79
2017-09-27T08:14:43.059Z,29.80
2017-09-27T08:17:10.553Z,30.89
2017-09-27T08:19:38.147Z,31.29
2017-09-27T08:22:05.856Z,31.40
2017-09-27T08:24:33.375Z,31.83
2017-09-27T08:32:29.443Z,32.07
2017-09-27T08:42:15.111Z,33.28
2017-09-27T08:44:42.628Z,33.81
2017-09-27T08:47:10.153Z,33.92
2017-09-27T08:49:37.683Z,32.80
2017-09-27T08:52:05.221Z,32.53
2017-09-27T08:54:32.887Z,32.62
2017-09-27T08:57:00.553Z,32.22
2017-09-27T08:59:28.201Z,32.06
2017-09-27T09:01:55.790Z,31.79
2017-09-27T09:04:23.273Z,31.77
2017-09-27T09:06:50.808Z,31.90
2017-09-27T09:09:18.499Z,31.62
2017-09-27T09:11:46.104Z,31.71
2017-09-27T09:14:13.598Z,31.61
2017-09-27T09:16:42.113Z,30.77
2017-09-27T09:19:10.429Z,28.90
2017-09-27T09:21:37.988Z,27.88
2017-09-27T09:24:06.583Z,27.14
2017-09-27T09:26:34.247Z,26.28
2017-09-27T09:29:01.860Z,25.97
2017-09-27T09:31:29.616Z,26.02
2017-09-27T09:33:57.147Z,26.26
2017-09-27T09:36:25.012Z,26.11
2017-09-27T09:38:52.589Z,26.74
2017-09-27T09:41:20.963Z,27.71
2017-09-27T09:43:48.580Z,27.51
2017-09-27T09:46:16.119Z,27.63
2017-09-27T09:48:43.654Z,29.00
2017-09-27T09:51:12.302Z,31.00
2017-09-27T09:53:40.068Z,32.40
2017-09-27T09:56:07.592Z,33.63
2017-09-27T09:58:35.149Z,34.23
2017-09-27T10:01:03.508Z,34.42
2017-09-27T10:03:31.102Z,34.48
2017-09-27T10:05:58.623Z,33.40
2017-09-27T10:08:26.139Z,33.15
2017-09-27T10:10:54.428Z,34.22
2017-09-27T10:13:22.532Z,34.16
2017-09-27T10:15:50.153Z,35.27
2017-09-27T10:18:17.679Z,35.79
2017-09-27T10:20:45.272Z,36.11
2017-09-27T10:23:12.904Z,36.22
2017-09-27T10:25:40.456Z,37.27
2017-09-27T10:28:07.992Z,37.19
2017-09-27T10:30:35.504Z,36.43
2017-09-27T10:33:03.023Z,36.48
2017-09-27T10:35:30.680Z,37.51
2017-09-27T10:37:58.351Z,37.94
2017-09-27T10:40:25.912Z,37.90
2017-09-27T10:42:53.449Z,38.44
2017-09-27T10:45:21.045Z,38.35
2017-09-27T10:47:48.725Z,37.08
2017-09-27T10:50:16.342Z,37.60
2017-09-27T10:52:43.890Z,38.39
2017-09-27T10:55:11.403Z,38.73
2017-09-27T10:57:38.896Z,38.77
2017-09-27T11:00:06.426Z,38.45
2017-09-27T11:02:33.930Z,39.10
2017-09-27T11:05:01.709Z,39.21
2017-09-27T11:07:29.263Z,39.06
2017-09-27T11:09:57.422Z,39.40
2017-09-27T11:12:24.995Z,39.32
2017-09-27T11:14:52.535Z,38.34
2017-09-27T11:17:20.098Z,38.93
2017-09-27T11:19:47.597Z,38.22
2017-09-27T11:22:15.165Z,39.33
2017-09-27T11:24:42.693Z,40.32
2017-09-27T11:27:11.813Z,40.80
2017-09-27T11:29:39.358Z,40.54
2017-09-27T11:32:06.936Z,39.53
2017-09-27T11:34:34.492Z,39.72
2017-09-27T11:37:02.329Z,38.37
2017-09-27T11:39:30.508Z,36.53
2017-09-27T11:41:58.113Z,36.26
2017-09-27T11:44:26.240Z,37.00
2017-09-27T11:46:53.804Z,37.53
2017-09-27T11:49:21.336Z,36.99
2017-09-27T11:51:48.921Z,36.88
2017-09-27T11:54:16.491Z,37.95
2017-09-27T11:56:44.090Z,39.99
2017-09-27T11:59:11.619Z,40.41
2017-09-27T12:01:39.208Z,40.65
2017-09-27T12:04:06.739Z,40.78
2017-09-27T12:06:34.278Z,41.33
2017-09-27T12:09:01.853Z,41.45
2017-09-27T12:11:29.855Z,42.19
2017-09-27T12:16:29.553Z,42.31
2017-09-27T12:18:57.085Z,41.81
2017-09-27T12:21:24.640Z,42.27
2017-09-27T12:23:52.617Z,40.23
2017-09-27T12:26:20.176Z,40.64
2017-09-27T12:28:48.434Z,40.56
2017-09-27T12:31:16.027Z,41.47
2017-09-27T12:33:43.567Z,41.39
2017-09-27T12:36:12.043Z,41.47
2017-09-27T12:38:39.588Z,41.29
2017-09-27T12:41:07.186Z,40.47
2017-09-27T12:43:35.323Z,40.30
2017-09-27T12:46:02.853Z,39.28
2017-09-27T12:48:30.471Z,39.30
2017-09-27T12:50:58.009Z,38.13
2017-09-27T12:53:25.536Z,38.51
2017-09-27T12:55:53.141Z,37.99
2017-09-27T12:58:20.633Z,37.39
2017-09-27T13:00:48.210Z,36.82
2017-09-27T13:03:16.450Z,36.31
2017-09-27T13:05:44.402Z,36.32
2017-09-27T13:08:11.972Z,35.56
2017-09-27T13:10:40.404Z,34.88
2017-09-27T13:13:08.076Z,34.21
2017-09-27T13:15:35.838Z,34.01
2017-09-27T13:18:03.421Z,33.51
2017-09-27T13:20:31.020Z,32.90
2017-09-27T13:22:58.668Z,32.62
2017-09-27T13:25:26.212Z,32.50
2017-09-27T13:27:53.743Z,32.09
2017-09-27T13:30:21.310Z,32.07
2017-09-27T13:32:48.807Z,31.66
2017-09-27T13:35:16.615Z,31.43
2017-09-27T13:37:44.170Z,31.75
2017-09-27T13:40:11.681Z,32.05
2017-09-27T13:42:39.243Z,32.16
2017-09-27T13:45:06.782Z,32.00
2017-09-27T13:47:34.360Z,31.53
2017-09-27T13:50:01.897Z,31.37
2017-09-27T13:52:30.223Z,30.72
2017-09-27T13:54:57.850Z,30.32
2017-09-27T13:57:25.397Z,29.98
2017-09-27T13:59:53.576Z,30.09
2017-09-27T14:02:21.113Z,29.99
2017-09-27T14:04:49.173Z,29.55
2017-09-27T14:07:18.604Z,29.85
2017-09-27T14:09:46.974Z,29.62
2017-09-27T14:12:14.504Z,29.46
2017-09-27T14:14:42.071Z,29.34
2017-09-27T14:17:09.564Z,29.14
2017-09-27T14:19:37.149Z,29.32
2017-09-27T14:22:04.669Z,28.80
2017-09-27T14:24:32.238Z,28.76
2017-09-27T14:27:03.090Z,28.58
2017-09-27T14:29:30.640Z,28.55
2017-09-27T14:31:58.266Z,28.35
2017-09-27T14:34:25.858Z,28.20
2017-09-27T14:36:54.281Z,27.85
2017-09-27T14:39:21.925Z,27.63
2017-09-27T14:41:49.604Z,27.50
2017-09-27T14:44:20.297Z,27.25
2017-09-27T14:46:48.523Z,27.37
2017-09-27T14:49:16.068Z,27.33
2017-09-27T14:51:44.553Z,27.17
2017-09-27T14:54:12.140Z,27.22
2017-09-27T14:56:40.282Z,27.10
2017-09-27T14:59:07.807Z,27.21
2017-09-27T15:01:35.379Z,27.31
2017-09-27T15:04:02.897Z,27.32
2017-09-27T15:06:30.441Z,27.24
2017-09-27T15:08:59.194Z,26.91
2017-09-27T15:11:27.664Z,26.92
2017-09-27T15:13:55.197Z,26.82
2017-09-27T15:16:22.684Z,26.48
2017-09-27T15:18:50.265Z,26.44
2017-09-27T15:21:17.778Z,26.19
2017-09-27T15:23:45.378Z,26.20
2017-09-27T15:26:12.976Z,26.33
2017-09-27T15:28:40.494Z,26.46
2017-09-27T15:31:08.089Z,26.33
2017-09-27T15:33:35.604Z,26.31
2017-09-27T15:36:03.424Z,26.23
2017-09-27T15:38:31.862Z,26.00
2017-09-27T15:40:59.614Z,26.06
2017-09-27T15:43:28.784Z,25.95
2017-09-27T15:45:56.627Z,25.94
2017-09-27T15:48:24.156Z,25.85
2017-09-27T15:50:51.681Z,25.69
2017-09-27T15:53:19.353Z,25.62
2017-09-27T15:55:46.898Z,25.56
2017-09-27T15:58:14.557Z,25.21
2017-09-27T16:00:42.131Z,25.19
2017-09-27T16:03:09.632Z,25.24
2017-09-27T16:05:37.160Z,25.12
2017-09-27T16:08:04.748Z,25.00
2017-09-27T16:10:32.418Z,25.04
2017-09-27T16:12:59.940Z,24.87
2017-09-27T16:15:27.535Z,24.88
2017-09-27T16:17:55.277Z,24.75
2017-09-27T16:20:22.817Z,24.82
2017-09-27T16:22:50.376Z,24.68
2017-09-27T16:25:17.910Z,24.58
2017-09-27T16:27:45.566Z,24.59
2017-09-27T16:30:13.096Z,24.61
2017-09-27T16:32:41.570Z,24.50
2017-09-27T16:35:09.141Z,24.44
2017-09-27T16:37:36.648Z,24.44
2017-09-27T16:40:04.125Z,24.41
2017-09-27T16:42:31.984Z,24.28
2017-09-27T16:44:59.581Z,24.34
2017-09-27T16:47:27.122Z,24.26
2017-09-27T16:49:54.747Z,24.15
2017-09-27T16:52:22.599Z,23.98
2017-09-27T16:54:50.116Z,23.86
2017-09-27T16:57:17.667Z,23.68
2017-09-27T16:59:45.190Z,23.62
2017-09-27T17:02:12.728Z,23.61
2017-09-27T17:04:40.262Z,23.61
2017-09-27T17:07:07.784Z,23.56
2017-09-27T17:09:35.575Z,23.44
2017-09-27T17:12:03.065Z,23.37
2017-09-27T17:14:30.620Z,23.35
2017-09-27T17:16:58.179Z,23.30
2017-09-27T17:19:25.665Z,23.22
2017-09-27T17:21:53.161Z,23.13
2017-09-27T17:24:21.875Z,22.92
2017-09-27T17:26:49.514Z,22.88
2017-09-27T17:29:17.095Z,22.82
2017-09-27T17:31:45.524Z,22.77
2017-09-27T17:34:13.962Z,22.67
2017-09-27T17:36:43.410Z,22.50
2017-09-27T17:39:11.077Z,22.44
2017-09-27T17:41:39.319Z,22.44
2017-09-27T17:44:06.912Z,22.38
2017-09-27T17:46:35.509Z,22.22
2017-09-27T17:49:03.071Z,22.23
2017-09-27T17:51:30.647Z,22.19
2017-09-27T17:53:58.191Z,22.11
2017-09-27T17:56:25.817Z,22.08
2017-09-27T17:58:53.418Z,21.98
2017-09-27T18:01:20.955Z,21.90
2017-09-27T18:03:49.397Z,21.83
2017-09-27T18:09:34.140Z,21.50
2017-09-27T18:15:24.040Z,21.37
2017-09-27T18:18:04.802Z,21.30
2017-09-27T18:20:32.446Z,21.24
2017-09-27T18:23:00.115Z,21.16
2017-09-27T18:25:27.788Z,20.85
2017-09-27T18:27:56.087Z,20.81
2017-09-27T18:30:24.803Z,20.80
2017-09-27T18:32:52.427Z,20.80
2017-09-27T18:35:21.455Z,20.74
2017-09-27T18:37:49.034Z,20.85
2017-09-27T18:40:16.769Z,20.76
2017-09-27T18:42:45.053Z,20.59
2017-09-27T18:45:12.640Z,20.59
2017-09-27T18:47:40.702Z,20.60
2017-09-27T18:50:09.276Z,20.55
2017-09-27T18:52:37.338Z,20.47
2017-09-27T18:55:05.725Z,20.50
2017-09-27T18:57:33.333Z,20.34
2017-09-27T19:00:01.087Z,20.19
2017-09-27T19:02:28.643Z,20.00
2017-09-27T19:04:56.382Z,19.99
2017-09-27T19:07:24.006Z,20.04
2017-09-27T19:09:51.649Z,19.99
2017-09-27T19:12:19.273Z,20.04
2017-09-27T19:14:46.899Z,19.90
2017-09-27T19:17:14.452Z,19.89
2017-09-27T19:19:42.105Z,19.84
2017-09-27T19:22:09.732Z,19.83
2017-09-27T19:24:37.399Z,19.55
2017-09-27T19:27:05.654Z,19.78
2017-09-27T19:29:33.233Z,19.76
2017-09-27T19:32:00.923Z,19.71
2017-09-27T19:34:28.770Z,19.64
2017-09-27T19:36:56.384Z,19.72
2017-09-27T19:39:24.454Z,19.65
2017-09-27T19:41:52.018Z,19.63
2017-09-27T19:44:19.557Z,19.59
2017-09-27T19:46:47.112Z,19.56
2017-09-27T19:49:14.639Z,19.51
2017-09-27T19:51:43.562Z,19.50
2017-09-27T19:54:12.373Z,19.53
2017-09-27T19:56:40.000Z,19.46
2017-09-27T19:59:07.540Z,19.33
2017-09-27T20:01:38.141Z,19.40
2017-09-27T20:04:06.598Z,19.31
2017-09-27T20:06:34.937Z,19.27
2017-09-27T20:09:02.574Z,19.14
2017-09-27T20:11:30.428Z,19.29
2017-09-27T20:13:57.970Z,19.30
2017-09-27T20:16:26.364Z,19.21
2017-09-27T20:18:53.962Z,19.21
2017-09-27T20:21:22.497Z,19.13
2017-09-27T20:23:51.053Z,19.09
2017-09-27T20:26:20.017Z,19.05
2017-09-27T20:28:47.597Z,19.08
2017-09-27T20:31:15.963Z,18.97
2017-09-27T20:33:44.429Z,18.85
2017-09-27T20:36:13.257Z,18.76
2017-09-27T20:38:40.895Z,18.88
2017-09-27T20:41:09.773Z,18.85
2017-09-27T20:43:37.370Z,18.73
2017-09-27T20:46:06.729Z,18.73
2017-09-27T20:48:34.289Z,18.77
2017-09-27T20:51:03.607Z,18.76
2017-09-27T20:53:31.227Z,18.74
2017-09-27T20:55:58.976Z,18.73
2017-09-27T20:58:26.790Z,18.59
2017-09-27T21:00:55.295Z,18.57
2017-09-27T21:03:22.928Z,18.48
2017-09-27T21:05:50.990Z,18.49
2017-09-27T21:08:19.144Z,18.51
2017-09-27T21:10:46.675Z,18.60
2017-09-27T21:13:14.320Z,18.60
2017-09-27T21:15:41.941Z,18.58
2017-09-27T21:18:10.371Z,18.60
2017-09-27T21:20:38.829Z,18.60
2017-09-27T21:23:06.360Z,18.36
2017-09-27T21:25:33.958Z,18.23
2017-09-27T21:28:01.616Z,18.28
2017-09-27T21:30:31.012Z,18.26
2017-09-27T21:32:58.558Z,18.17
2017-09-27T21:35:27.002Z,18.22
2017-09-27T21:37:54.736Z,18.19
2017-09-27T21:40:22.929Z,18.14
2017-09-27T21:42:50.495Z,18.16
2017-09-27T21:45:18.876Z,18.20
2017-09-27T21:47:47.605Z,18.11
2017-09-27T21:50:15.136Z,18.06
2017-09-27T21:52:43.687Z,18.07
2017-09-27T21:55:11.732Z,18.06
2017-09-27T21:57:40.296Z,18.04
2017-09-27T22:00:08.801Z,17.98
2017-09-27T22:02:36.350Z,17.77
2017-09-27T22:05:04.008Z,17.72
2017-09-27T22:07:32.507Z,17.71
2017-09-27T22:10:00.176Z,17.75
2017-09-27T22:12:27.759Z,17.57
2017-09-27T22:14:56.522Z,17.84
2017-09-27T22:17:24.714Z,17.91
2017-09-27T22:19:52.280Z,17.86
2017-09-27T22:22:21.152Z,17.83
2017-09-27T22:24:48.739Z,17.85
2017-09-27T22:27:17.248Z,17.88
2017-09-27T22:29:44.763Z,17.92
2017-09-27T22:32:12.604Z,17.97
2017-09-27T22:34:40.764Z,17.96
2017-09-27T22:37:08.355Z,17.88
2017-09-27T22:39:36.730Z,17.89
2017-09-27T22:42:04.622Z,17.82
2017-09-27T22:44:32.353Z,17.80
2017-09-27T22:47:01.109Z,17.78
2017-09-27T22:49:29.405Z,17.76
2017-09-27T22:51:56.990Z,17.68
2017-09-27T22:54:24.849Z,17.66
2017-09-27T22:56:52.499Z,17.60
2017-09-27T22:59:20.184Z,17.62
2017-09-27T23:01:47.752Z,17.57
2017-09-27T23:04:15.357Z,17.58
2017-09-27T23:06:42.988Z,17.60
2017-09-27T23:09:11.625Z,17.64
2017-09-27T23:11:39.183Z,17.54
2017-09-27T23:14:06.761Z,17.59
2017-09-27T23:16:34.399Z,17.48
2017-09-27T23:19:02.504Z,17.60
2017-09-27T23:21:30.122Z,17.53
2017-09-27T23:24:00.046Z,17.40
2017-09-27T23:26:27.871Z,17.31
2017-09-27T23:28:56.031Z,17.24
2017-09-27T23:31:23.663Z,17.21
2017-09-27T23:33:51.217Z,17.16
2017-09-27T23:36:19.202Z,17.08
2017-09-27T23:38:47.990Z,16.95
2017-09-27T23:41:17.989Z,16.76
2017-09-27T23:43:48.295Z,16.91
2017-09-27T23:46:15.925Z,16.91
2017-09-27T23:48:43.516Z,16.92
2017-09-27T23:51:11.952Z,16.95
2017-09-27T23:53:41.211Z,16.96
2017-09-27T23:56:09.874Z,16.93
2017-09-27T23:58:38.606Z,16.99
